»·PEaware :: I-IAEP LICR-LICC

I-IAEP :: LICR-LICC

FLIGHT INFORMATION

Flight Status: Arrived
Operator: Privately registered:
Italy
More flights under this callsign
Pilot: Angelo R. (1452)
Aircraft: BEECH AIRCRAFT BARON
(BE58)
More flights by this aircraft type
Origin: LICR Reggio Calabria
Italy
Destination: LICC Fontanarossa
Italy
More flights between these airports :: More routes between these airports
Route:
File this flight plan on PilotEdge
Remarks:
Altitude:
(Current/Filed)
7,000ft
Speed:
(Current/Filed)
160kts
Departed: 04-Jul-14 02:46 AM
Arrived: 04-Jul-14 03:32 AM
Distance/Time
Traveled:
46nm/0:46
Distance/Time
To Go:
Arrived

Flight Plot

Page will automatically refresh every two minutes.


Map Options




Map Legend


Flown Route
Filed Route
Departure Airport
Arrival Airport
Navaid (VOR, NDB)
Fix

Horizontal Profiles

Position Reports

Time Latitude Longitude Heading Altitude Ground
Speed
04-Jul-14 02:34 38.071632 15.655772 68 99ft 0kts
04-Jul-14 02:35 38.071632 15.655772 68 99ft 0kts
04-Jul-14 02:36 38.071632 15.655772 68 99ft 0kts
04-Jul-14 02:37 38.071632 15.655772 68 99ft 0kts
04-Jul-14 02:38 38.071632 15.655772 68 99ft 0kts
04-Jul-14 02:39 38.071632 15.655772 68 99ft 0kts
04-Jul-14 02:40 38.071632 15.655772 68 99ft 0kts
04-Jul-14 02:41 38.071057 15.655750 202 99ft 4kts
04-Jul-14 02:42 38.070402 15.655434 203 99ft 3kts
04-Jul-14 02:43 38.069444 15.656475 78 99ft 6kts
04-Jul-14 02:44 38.069832 15.655533 290 99ft 24kts
04-Jul-14 02:45 38.078522 15.631379 288 331ft 89kts
04-Jul-14 02:46 38.076409 15.606518 216 1013ft 66kts
04-Jul-14 02:47 38.062050 15.593456 209 1860ft 78kts
04-Jul-14 02:48 38.037139 15.586811 157 2516ft 113kts
04-Jul-14 02:49 38.018750 15.624476 120 3182ft 144kts
04-Jul-14 02:50 37.998046 15.671895 115 3814ft 162kts
04-Jul-14 02:51 37.978177 15.713132 179 4405ft 158kts
04-Jul-14 02:52 37.963506 15.702982 224 4703ft 157kts
04-Jul-14 02:53 37.935602 15.662631 227 5304ft 147kts
04-Jul-14 02:54 37.909655 15.624191 227 5892ft 142kts
04-Jul-14 02:55 37.882153 15.590238 195 6494ft 137kts
04-Jul-14 02:56 37.845476 15.578628 193 7009ft 140kts
04-Jul-14 02:57 37.804260 15.566263 193 7023ft 160kts
04-Jul-14 02:58 37.767790 15.537251 230 7021ft 165kts
04-Jul-14 02:59 37.737408 15.493172 220 7020ft 167kts
04-Jul-14 03:00 37.699037 15.460645 208 7019ft 167kts
04-Jul-14 03:01 37.657228 15.434553 204 7019ft 167kts
04-Jul-14 03:02 37.614570 15.411168 202 7019ft 167kts
04-Jul-14 03:03 37.571874 15.389171 201 6630ft 163kts
04-Jul-14 03:04 37.530121 15.368718 201 6117ft 159kts
04-Jul-14 03:05 37.503341 15.333482 256 6025ft 154kts
04-Jul-14 03:06 37.495012 15.278498 257 6020ft 163kts
04-Jul-14 03:07 37.486893 15.221784 257 6019ft 166kts
04-Jul-14 03:08 37.478965 15.164384 258 6019ft 167kts
04-Jul-14 03:09 37.471615 15.106593 258 6018ft 167kts
04-Jul-14 03:10 37.464846 15.048698 263 6019ft 168kts
04-Jul-14 03:11 37.460856 14.988758 263 5819ft 176kts
04-Jul-14 03:12 37.457011 14.926304 263 5534ft 180kts
04-Jul-14 03:13 37.453423 14.865100 263 5518ft 172kts
04-Jul-14 03:14 37.450013 14.805468 263 5519ft 170kts
04-Jul-14 03:15 37.446425 14.746579 263 5521ft 170kts
04-Jul-14 03:16 37.443066 14.689434 262 5517ft 152kts
04-Jul-14 03:17 37.437871 14.640024 226 5513ft 134kts
04-Jul-14 03:18 37.407951 14.613943 212 5517ft 129kts
04-Jul-14 03:19 37.401367 14.580807 336 5516ft 137kts
04-Jul-14 03:20 37.431086 14.605664 47 5521ft 139kts
04-Jul-14 03:21 37.440284 14.650659 87 5520ft 136kts
04-Jul-14 03:22 37.442930 14.691724 87 5165ft 150kts
04-Jul-14 03:23 37.446918 14.756470 87 4170ft 164kts
04-Jul-14 03:24 37.449767 14.803772 87 3429ft 163kts
04-Jul-14 03:25 37.453594 14.869205 87 2471ft 159kts
04-Jul-14 03:26 37.456222 14.914751 87 1918ft 146kts
04-Jul-14 03:27 37.458621 14.956560 88 1688ft 108kts
04-Jul-14 03:28 37.460582 14.992865 89 1166ft 99kts
04-Jul-14 03:29 37.462492 15.027134 88 674ft 97kts
04-Jul-14 03:30 37.466497 15.060019 82 116ft 93kts
04-Jul-14 03:31 37.468049 15.076792 60 42ft 17kts
04-Jul-14 03:32 37.469305 15.076955 263 42ft 10kts
04-Jul-14 03:33 37.468950 15.072554 263 42ft 13kts
04-Jul-14 03:34 37.469375 15.070467 42 42ft 6kts

Navigation Log

Ident Type
1. LICR Airport
2. LICC Airport